Time;durP1;ratioP1;P1;durP2;ratioP2;P2;SDS_P1;SDS_P2;PMS_P1;PMS_P2;Temp;Humidity;BMP_temperature;BMP_pressure;BME280_temperature;BME280_humidity;BME280_pressure;Samples;Min_cycle;Max_cycle;Signal;HPM_P1;HPM_P2
2021/04/05 00:00:13;;;;;;;20.23;12.00;;;3.80;89.00;;;;;;2104879;28;20020;-70
2021/04/05 00:01:14;;;;;;;22.80;12.43;;;3.80;89.10;;;;;;2105461;28;20032;-70
2021/04/05 00:02:16;;;;;;;28.15;14.50;;;3.90;89.40;;;;;;2106521;28;20068;-68
2021/04/05 00:03:16;;;;;;;28.67;13.77;;;3.90;89.30;;;;;;2106115;28;20024;-69
2021/04/05 00:04:17;;;;;;;25.60;13.50;;;3.90;89.10;;;;;;2106441;28;20024;-68
2021/04/05 00:05:30;;;;;;;25.65;13.57;;;3.90;89.00;;;;;;2106529;28;20402;-71
2021/04/05 00:06:30;;;;;;;22.63;12.55;;;3.90;88.80;;;;;;2106434;28;20024;-70
2021/04/05 00:07:31;;;;;;;22.95;12.85;;;3.90;88.70;;;;;;2106626;28;20016;-69
2021/04/05 00:08:32;;;;;;;22.52;12.95;;;3.90;88.70;;;;;;2106369;28;20050;-69
2021/04/05 00:09:32;;;;;;;22.17;12.45;;;3.90;89.60;;;;;;2106451;28;20024;-70
2021/04/05 00:10:40;;;;;;;25.83;13.48;;;3.90;89.00;;;;;;2106469;28;20559;-70
2021/04/05 00:11:41;;;;;;;24.20;12.63;;;3.90;89.00;;;;;;2106497;28;20039;-69
2021/04/05 00:12:42;;;;;;;23.88;13.23;;;3.80;89.80;;;;;;2106453;28;20463;-69
2021/04/05 00:13:43;;;;;;;24.95;13.55;;;3.80;89.10;;;;;;2106156;28;20028;-69
2021/04/05 00:14:43;;;;;;;22.00;13.18;;;3.80;89.20;;;;;;2106541;28;20032;-69
2021/04/05 00:15:44;;;;;;;21.95;12.80;;;3.80;89.10;;;;;;2106407;28;20028;-70
2021/04/05 00:16:45;;;;;;;21.77;12.65;;;3.80;89.10;;;;;;2106447;28;20047;-70
2021/04/05 00:17:46;;;;;;;22.20;12.52;;;3.90;89.30;;;;;;2097276;28;20032;-69
2021/04/05 00:18:47;;;;;;;20.02;11.73;;;3.80;89.20;;;;;;2097487;28;20059;-70
2021/04/05 00:19:48;;;;;;;23.23;12.10;;;3.80;89.20;;;;;;2106409;28;20024;-70
2021/04/05 00:20:57;;;;;;;18.55;11.98;;;3.80;89.10;;;;;;2106385;28;20480;-70
2021/04/05 00:21:57;;;;;;;21.10;11.95;;;3.80;89.10;;;;;;2106668;28;20384;-70
2021/04/05 00:22:59;;;;;;;21.40;12.57;;;3.80;89.30;;;;;;2106314;28;20126;-69
2021/04/05 00:23:59;;;;;;;19.17;11.70;;;3.80;89.30;;;;;;2106185;28;20498;-70
2021/04/05 00:25:00;;;;;;;23.42;12.63;;;3.80;89.20;;;;;;2106328;28;20020;-69
2021/04/05 00:26:01;;;;;;;19.15;11.98;;;3.80;89.20;;;;;;2106240;28;20016;-69
2021/04/05 00:27:03;;;;;;;18.85;12.20;;;3.80;89.20;;;;;;2106333;28;20020;-70
2021/04/05 00:28:04;;;;;;;20.10;11.70;;;3.80;89.20;;;;;;2106123;28;20046;-68
2021/04/05 00:29:04;;;;;;;17.23;11.05;;;3.80;89.20;;;;;;2106127;28;20031;-70
2021/04/05 00:30:10;;;;;;;19.00;11.45;;;3.80;89.10;;;;;;2106250;28;20062;-69
2021/04/05 00:31:10;;;;;;;17.23;11.30;;;3.80;89.30;;;;;;2106208;28;20061;-70
2021/04/05 00:32:11;;;;;;;22.08;11.50;;;3.70;89.20;;;;;;2105598;28;20020;-70
2021/04/05 00:33:12;;;;;;;22.70;11.98;;;3.80;89.30;;;;;;2105132;28;20036;-70
2021/04/05 00:34:12;;;;;;;20.05;11.60;;;3.70;89.30;;;;;;2105683;28;20038;-69
2021/04/05 00:35:30;;;;;;;19.08;11.77;;;3.70;89.40;;;;;;2105635;28;20569;-69
2021/04/05 00:36:31;;;;;;;20.50;12.18;;;3.70;89.50;;;;;;2106372;28;20032;-70
2021/04/05 00:37:31;;;;;;;21.23;11.98;;;3.70;90.10;;;;;;2105659;28;20121;-70
2021/04/05 00:38:32;;;;;;;22.33;12.73;;;3.70;89.60;;;;;;2105530;28;20560;-69
2021/04/05 00:39:33;;;;;;;24.35;12.88;;;3.70;89.80;;;;;;2105639;28;20426;-70
2021/04/05 00:40:37;;;;;;;22.55;13.15;;;3.60;89.70;;;;;;2105647;28;20105;-70
2021/04/05 00:41:39;;;;;;;23.77;13.45;;;3.70;89.90;;;;;;2105646;28;20155;-69
2021/04/05 00:42:41;;;;;;;22.52;13.35;;;3.60;90.00;;;;;;2106119;28;20578;-70
2021/04/05 00:43:46;;;;;;;23.23;13.70;;;3.60;90.00;;;;;;2105854;28;20123;-70
2021/04/05 00:44:47;;;;;;;23.00;13.18;;;3.60;90.00;;;;;;2106311;28;20028;-70
2021/04/05 00:45:48;;;;;;;22.17;13.07;;;3.60;90.10;;;;;;2106349;28;20082;-70
2021/04/05 00:46:48;;;;;;;25.70;13.63;;;3.60;90.10;;;;;;2106267;28;20046;-70
2021/04/05 00:47:51;;;;;;;24.58;13.45;;;3.60;90.20;;;;;;2106410;28;20028;-69
2021/04/05 00:48:52;;;;;;;26.00;13.50;;;3.60;90.10;;;;;;2106375;28;20030;-70
2021/04/05 00:49:54;;;;;;;28.20;14.63;;;3.60;90.10;;;;;;2106365;28;20048;-70
2021/04/05 00:51:00;;;;;;;27.35;15.00;;;3.60;90.20;;;;;;2105507;28;20487;-70
2021/04/05 00:52:03;;;;;;;27.00;14.38;;;3.60;90.20;;;;;;2105546;28;20074;-70
2021/04/05 00:53:05;;;;;;;28.70;15.13;;;3.60;90.20;;;;;;2105446;28;20027;-70
2021/04/05 00:54:08;;;;;;;30.60;15.15;;;3.60;90.20;;;;;;2105220;28;20036;-69
2021/04/05 00:55:10;;;;;;;34.42;17.35;;;3.60;90.30;;;;;;2105557;28;20016;-70
2021/04/05 00:56:15;;;;;;;30.25;15.55;;;3.50;90.20;;;;;;2106022;28;20024;-70
2021/04/05 00:57:16;;;;;;;30.33;15.85;;;3.60;90.20;;;;;;2106335;28;20107;-70
2021/04/05 00:58:17;;;;;;;30.38;15.88;;;3.60;90.20;;;;;;2106176;28;20074;-70
2021/04/05 00:59:19;;;;;;;30.77;15.93;;;3.50;90.20;;;;;;2105429;28;20013;-70
2021/04/05 01:00:42;;;;;;;31.08;14.50;;;3.60;90.20;;;;;;2105447;28;20484;-70
2021/04/05 01:01:42;;;;;;;26.90;14.02;;;3.60;90.30;;;;;;2104787;28;20062;-70
2021/04/05 01:02:44;;;;;;;27.10;14.02;;;3.60;90.40;;;;;;2105496;28;20092;-70
2021/04/05 01:03:45;;;;;;;29.73;15.40;;;3.50;90.30;;;;;;2105106;28;20395;-70
2021/04/05 01:04:45;;;;;;;27.27;14.77;;;3.50;90.40;;;;;;2105350;28;20055;-70
2021/04/05 01:05:49;;;;;;;27.10;14.27;;;3.50;90.40;;;;;;2106112;28;20024;-70
2021/04/05 01:06:49;;;;;;;29.00;15.32;;;3.50;90.50;;;;;;2106189;28;20061;-70
2021/04/05 01:07:51;;;;;;;34.08;15.40;;;3.50;90.50;;;;;;2106019;28;20406;-70
2021/04/05 01:08:52;;;;;;;27.77;15.05;;;3.50;90.60;;;;;;2106082;28;20059;-70
2021/04/05 01:09:53;;;;;;;29.50;14.90;;;3.50;90.60;;;;;;2106173;28;20036;-70
2021/04/05 01:10:53;;;;;;;25.95;14.27;;;3.50;90.60;;;;;;2105961;28;20067;-70
2021/04/05 01:11:54;;;;;;;31.52;15.52;;;3.50;90.60;;;;;;2105899;28;20841;-70
2021/04/05 01:12:55;;;;;;;30.00;15.75;;;3.60;90.70;;;;;;2105189;28;20055;-70
2021/04/05 01:13:56;;;;;;;27.70;15.10;;;3.60;90.60;;;;;;2105674;28;20024;-70
2021/04/05 01:14:56;;;;;;;27.88;14.70;;;3.50;90.60;;;;;;2106046;28;20376;-70
2021/04/05 01:15:57;;;;;;;26.02;14.48;;;3.50;90.50;;;;;;2106249;28;20034;-70
2021/04/05 01:16:58;;;;;;;26.88;14.50;;;3.50;90.40;;;;;;2106124;28;20421;-70
2021/04/05 01:17:59;;;;;;;24.85;14.02;;;3.50;90.40;;;;;;2105889;28;20027;-70
2021/04/05 01:19:01;;;;;;;28.02;14.70;;;3.50;90.50;;;;;;2105982;28;20387;-70
2021/04/05 01:20:06;;;;;;;26.63;14.52;;;3.50;90.50;;;;;;2105833;28;20038;-69
2021/04/05 01:21:08;;;;;;;26.02;14.43;;;3.50;90.50;;;;;;2105948;28;20070;-70
2021/04/05 01:22:09;;;;;;;25.17;14.15;;;3.50;90.60;;;;;;2105991;28;20173;-70
2021/04/05 01:23:10;;;;;;;24.73;13.63;;;3.50;90.60;;;;;;2105635;28;20035;-69
2021/04/05 01:24:11;;;;;;;21.75;13.20;;;3.50;90.60;;;;;;2105836;28;20028;-70
2021/04/05 01:25:14;;;;;;;24.80;13.73;;;3.50;90.60;;;;;;2105927;28;20039;-71
2021/04/05 01:26:14;;;;;;;25.83;13.73;;;3.50;90.60;;;;;;2106009;28;20016;-70
2021/04/05 01:27:15;;;;;;;22.70;13.90;;;3.50;90.60;;;;;;2105867;28;20107;-71
2021/04/05 01:28:17;;;;;;;25.92;14.23;;;3.50;90.60;;;;;;2105684;28;20030;-70
2021/04/05 01:29:18;;;;;;;26.83;14.18;;;3.50;90.70;;;;;;2105884;28;20035;-70
2021/04/05 01:30:32;;;;;;;23.58;13.70;;;3.50;90.90;;;;;;2105780;28;20462;-70
2021/04/05 01:31:33;;;;;;;23.10;13.45;;;3.50;90.80;;;;;;2105862;28;20024;-70
2021/04/05 01:32:33;;;;;;;27.77;13.52;;;3.60;90.80;;;;;;2105755;28;20490;-70
2021/04/05 01:33:36;;;;;;;22.70;13.30;;;3.60;90.70;;;;;;2105553;28;20020;-70
2021/04/05 01:34:38;;;;;;;23.48;13.30;;;3.50;90.60;;;;;;2105818;28;20055;-70
2021/04/05 01:36:02;;;;;;;24.75;14.57;;;3.60;90.70;;;;;;2105788;28;20462;-70
2021/04/05 01:37:02;;;;;;;28.92;15.52;;;3.60;90.90;;;;;;2105481;28;20032;-70
2021/04/05 01:38:04;;;;;;;33.70;17.10;;;3.50;90.70;;;;;;2106013;28;20395;-70
2021/04/05 01:39:05;;;;;;;32.10;16.60;;;3.50;90.70;;;;;;2106003;28;20024;-70
2021/04/05 01:40:06;;;;;;;31.90;17.75;;;3.50;90.60;;;;;;2106702;28;20048;-69
2021/04/05 01:41:12;;;;;;;33.47;17.30;;;3.50;90.60;;;;;;2106965;28;20023;-70
2021/04/05 01:42:13;;;;;;;31.48;16.50;;;3.50;90.60;;;;;;2106845;28;20035;-70
2021/04/05 01:43:14;;;;;;;31.45;16.92;;;3.50;90.60;;;;;;2106293;28;20511;-69
2021/04/05 01:44:14;;;;;;;28.83;16.23;;;3.50;90.60;;;;;;2106843;28;20073;-70
2021/04/05 01:45:18;;;;;;;32.72;17.27;;;3.50;90.50;;;;;;2106599;28;20091;-70
2021/04/05 01:46:20;;;;;;;32.05;16.42;;;3.50;90.60;;;;;;2107023;28;20028;-70
2021/04/05 01:47:21;;;;;;;27.92;16.02;;;3.50;90.60;;;;;;2105714;28;20028;-70
2021/04/05 01:48:26;;;;;;;30.10;16.88;;;3.50;90.60;;;;;;2105876;28;20076;-70
2021/04/05 01:49:27;;;;;;;29.05;15.82;;;3.50;90.60;;;;;;2105968;28;20042;-70
2021/04/05 01:50:28;;;;;;;29.00;15.80;;;3.50;90.60;;;;;;2105915;28;20047;-70
2021/04/05 01:51:29;;;;;;;31.00;15.93;;;3.40;90.60;;;;;;2105843;28;20444;-69
2021/04/05 01:52:30;;;;;;;29.67;16.05;;;3.50;90.60;;;;;;2105607;28;20039;-70
2021/04/05 01:53:31;;;;;;;26.52;15.48;;;3.50;90.60;;;;;;2105395;28;20028;-70
2021/04/05 01:54:34;;;;;;;28.38;15.20;;;3.40;90.50;;;;;;2105046;28;20027;-70
2021/04/05 01:55:36;;;;;;;26.65;15.02;;;3.50;90.60;;;;;;2096830;28;20029;-70
2021/04/05 01:56:37;;;;;;;27.75;15.18;;;3.40;90.50;;;;;;2104853;28;20098;-70
2021/04/05 01:57:38;;;;;;;28.42;15.15;;;3.40;90.50;;;;;;2096599;28;20562;-70
2021/04/05 01:58:47;;;;;;;26.60;14.65;;;3.40;90.60;;;;;;2105169;28;20021;-71
2021/04/05 01:59:48;;;;;;;29.10;15.45;;;3.40;90.60;;;;;;2105745;28;20100;-70
2021/04/05 02:00:49;;;;;;;29.05;15.50;;;3.50;90.70;;;;;;2105728;28;20032;-70
2021/04/05 02:01:50;;;;;;;25.52;14.70;;;3.50;90.70;;;;;;2105605;28;20518;-70
2021/04/05 02:02:51;;;;;;;25.02;14.60;;;3.40;90.70;;;;;;2105448;28;20031;-70
2021/04/05 02:03:53;;;;;;;23.85;14.18;;;3.40;90.70;;;;;;2105308;28;20099;-70
2021/04/05 02:04:56;;;;;;;28.77;15.13;;;3.40;90.80;;;;;;2105503;28;20020;-70
2021/04/05 02:06:01;;;;;;;24.83;14.23;;;3.40;90.80;;;;;;2105438;28;20564;-70
2021/04/05 02:07:03;;;;;;;26.00;14.80;;;3.40;90.80;;;;;;2105605;28;20028;-70
2021/04/05 02:08:06;;;;;;;22.55;12.68;;;3.40;90.80;;;;;;2105477;28;20028;-70
2021/04/05 02:09:10;;;;;;;23.08;13.57;;;3.40;90.80;;;;;;2105500;28;20032;-70
2021/04/05 02:10:18;;;;;;;24.08;13.50;;;3.50;90.80;;;;;;2104888;28;20043;-70
2021/04/05 02:11:23;;;;;;;23.23;13.27;;;3.50;90.80;;;;;;2104895;28;20105;-70
2021/04/05 02:12:23;;;;;;;23.42;13.75;;;3.50;90.80;;;;;;2105475;28;20059;-70
2021/04/05 02:13:25;;;;;;;26.52;13.68;;;3.50;90.70;;;;;;2105019;28;20031;-70
2021/04/05 02:14:26;;;;;;;23.38;13.35;;;3.50;90.70;;;;;;2104712;28;20115;-69
2021/04/05 02:15:27;;;;;;;21.25;13.85;;;3.50;90.70;;;;;;2104884;28;20074;-70
2021/04/05 02:16:28;;;;;;;22.92;13.82;;;3.50;90.60;;;;;;2105460;28;20027;-70
2021/04/05 02:17:29;;;;;;;24.60;13.75;;;3.50;90.60;;;;;;2105488;28;20056;-70
2021/04/05 02:18:30;;;;;;;22.73;13.23;;;3.50;90.60;;;;;;2105407;28;20039;-70
2021/04/05 02:19:30;;;;;;;24.60;14.32;;;3.50;90.60;;;;;;2104753;28;20020;-70
2021/04/05 02:20:32;;;;;;;26.35;14.63;;;3.50;90.50;;;;;;2104906;28;20602;-70
2021/04/05 02:21:33;;;;;;;25.48;14.30;;;3.60;90.50;;;;;;2105442;28;20339;-70
2021/04/05 02:22:37;;;;;;;26.75;14.00;;;3.60;90.40;;;;;;2104840;28;20032;-69
2021/04/05 02:23:39;;;;;;;27.25;14.68;;;3.60;90.50;;;;;;2104574;28;20020;-70
2021/04/05 02:24:41;;;;;;;26.73;14.10;;;3.60;90.40;;;;;;2104875;28;20024;-70
2021/04/05 02:27:04;;;;;;;20.50;13.02;;;3.60;90.50;;;;;;2105049;28;20594;-70
2021/04/05 02:28:05;;;;;;;24.38;13.68;;;3.60;90.50;;;;;;2104781;28;20028;-70
2021/04/05 02:29:06;;;;;;;20.55;12.73;;;3.70;90.60;;;;;;2104912;28;20040;-69
2021/04/05 02:30:08;;;;;;;24.52;13.98;;;3.60;90.50;;;;;;2105574;28;20024;-70
2021/04/05 02:31:11;;;;;;;22.60;13.00;;;3.70;90.40;;;;;;2105724;28;20386;-70
2021/04/05 02:32:11;;;;;;;22.88;12.73;;;3.70;90.40;;;;;;2105472;28;20624;-70
2021/04/05 02:33:12;;;;;;;20.23;13.15;;;3.70;90.40;;;;;;2104578;28;20110;-70
2021/04/05 02:34:13;;;;;;;23.38;13.13;;;3.70;90.40;;;;;;2104939;28;20099;-70
2021/04/05 02:35:14;;;;;;;22.33;12.98;;;3.70;90.40;;;;;;2105484;28;20028;-70
2021/04/05 02:36:21;;;;;;;21.58;12.55;;;3.70;90.50;;;;;;2105557;28;20020;-69
2021/04/05 02:37:22;;;;;;;22.20;13.07;;;3.70;90.50;;;;;;2105826;28;20016;-70
2021/04/05 02:38:23;;;;;;;22.92;13.23;;;3.70;90.40;;;;;;2105664;28;20028;-70
2021/04/05 02:39:23;;;;;;;20.67;12.32;;;3.70;90.40;;;;;;2105767;28;20024;-70
2021/04/05 02:40:25;;;;;;;21.05;12.15;;;3.70;90.40;;;;;;2105680;28;20514;-69
2021/04/05 02:41:29;;;;;;;22.15;12.65;;;3.70;90.40;;;;;;2105570;28;20067;-69
2021/04/05 02:42:30;;;;;;;20.15;12.48;;;3.70;90.40;;;;;;2105529;28;20035;-70
2021/04/05 02:43:32;;;;;;;20.77;12.50;;;3.70;90.40;;;;;;2105158;28;20024;-70
2021/04/05 02:44:33;;;;;;;21.50;12.38;;;3.80;90.40;;;;;;2105523;28;20032;-70
2021/04/05 02:45:34;;;;;;;21.20;12.43;;;3.80;90.30;;;;;;2105542;28;20320;-70
2021/04/05 02:46:37;;;;;;;20.48;11.88;;;3.80;90.20;;;;;;2104919;28;20035;-70
2021/04/05 02:47:38;;;;;;;22.40;12.35;;;3.80;90.20;;;;;;2104916;28;20209;-70
2021/04/05 02:48:43;;;;;;;20.02;11.98;;;3.80;90.20;;;;;;2104820;28;20032;-70
2021/04/05 02:49:44;;;;;;;20.63;11.63;;;3.80;90.20;;;;;;2104893;28;20020;-70
2021/04/05 02:50:45;;;;;;;20.70;12.32;;;3.90;90.10;;;;;;2105392;28;20398;-70
2021/04/05 02:51:50;;;;;;;22.42;13.13;;;3.90;90.10;;;;;;2105358;28;20032;-70
2021/04/05 02:52:52;;;;;;;22.27;12.70;;;3.90;90.00;;;;;;2104481;28;20087;-70
2021/04/05 02:54:04;;;;;;;20.80;11.88;;;3.90;90.00;;;;;;2104452;28;20055;-70
2021/04/05 02:55:08;;;;;;;19.17;12.10;;;3.90;90.00;;;;;;2105501;28;20016;-70
2021/04/05 02:56:10;;;;;;;23.23;12.73;;;3.90;89.80;;;;;;2104861;28;20056;-70
2021/04/05 02:57:11;;;;;;;21.10;12.55;;;4.00;89.70;;;;;;2104781;28;20020;-70
2021/04/05 02:58:12;;;;;;;23.40;12.57;;;4.00;89.60;;;;;;2105235;28;20437;-70
2021/04/05 02:59:16;;;;;;;21.20;12.85;;;4.00;89.60;;;;;;2105454;28;20112;-70
2021/04/05 03:00:19;;;;;;;22.38;12.70;;;4.00;89.70;;;;;;2105249;28;20024;-69
2021/04/05 03:01:22;;;;;;;23.85;12.90;;;4.00;89.40;;;;;;2105273;28;20489;-70
2021/04/05 03:02:23;;;;;;;22.33;12.95;;;4.00;89.30;;;;;;2105489;28;20024;-70
2021/04/05 03:03:24;;;;;;;24.40;12.80;;;4.10;89.40;;;;;;2104872;28;20487;-70
2021/04/05 03:04:25;;;;;;;24.75;13.00;;;4.10;89.10;;;;;;2105476;28;20064;-70
2021/04/05 03:05:27;;;;;;;23.35;12.60;;;4.10;89.10;;;;;;2105357;28;20371;-70
2021/04/05 03:06:28;;;;;;;22.77;12.77;;;4.10;89.10;;;;;;2105413;28;20046;-70
2021/04/05 03:07:29;;;;;;;23.88;12.93;;;4.10;89.10;;;;;;2105424;28;20032;-70
2021/04/05 03:08:30;;;;;;;21.55;12.18;;;4.10;89.00;;;;;;2105407;28;20475;-70
2021/04/05 03:09:31;;;;;;;21.00;12.18;;;4.10;88.70;;;;;;2105528;28;20028;-70
2021/04/05 03:10:35;;;;;;;19.40;11.60;;;4.10;88.50;;;;;;2105417;28;20119;-70
2021/04/05 03:11:37;;;;;;;19.17;11.80;;;4.20;88.40;;;;;;2105403;28;20076;-70
2021/04/05 03:12:40;;;;;;;21.90;12.25;;;4.20;88.30;;;;;;2105490;28;20417;-70
2021/04/05 03:13:41;;;;;;;21.27;12.07;;;4.20;88.10;;;;;;2105057;28;20028;-70
2021/04/05 03:14:42;;;;;;;18.42;11.57;;;4.20;88.00;;;;;;2105286;28;20431;-70
2021/04/05 03:15:43;;;;;;;18.52;11.07;;;4.10;87.90;;;;;;2105615;28;20107;-70
2021/04/05 03:16:45;;;;;;;20.25;11.60;;;4.20;88.00;;;;;;2105455;28;20028;-70
2021/04/05 03:17:48;;;;;;;20.05;12.20;;;4.20;87.90;;;;;;2105652;28;20021;-70
2021/04/05 03:18:51;;;;;;;21.73;12.02;;;4.20;88.00;;;;;;2105441;28;20043;-70
2021/04/05 03:19:53;;;;;;;21.15;12.00;;;4.20;88.00;;;;;;2105598;28;20034;-70
2021/04/05 03:20:55;;;;;;;24.20;12.27;;;4.20;88.00;;;;;;2105368;28;20122;-70
2021/04/05 03:21:55;;;;;;;21.85;12.10;;;4.20;88.00;;;;;;2105718;28;20035;-70
2021/04/05 03:22:56;;;;;;;21.95;12.10;;;4.10;87.90;;;;;;2104940;28;20032;-69
2021/04/05 03:24:00;;;;;;;20.00;11.75;;;4.10;87.90;;;;;;2104592;28;20035;-69
2021/04/05 03:25:01;;;;;;;20.10;11.32;;;4.10;87.90;;;;;;2107609;28;20031;-70
2021/04/05 03:26:02;;;;;;;24.73;13.30;;;4.10;88.00;;;;;;2109592;28;20110;-70
2021/04/05 03:27:04;;;;;;;24.45;12.10;;;4.10;88.20;;;;;;2108825;28;20024;-70
2021/04/05 03:28:04;;;;;;;23.20;12.50;;;4.10;88.30;;;;;;2107652;28;20127;-68
2021/04/05 03:29:08;;;;;;;22.23;12.02;;;4.10;88.40;;;;;;2107293;28;20040;-68
2021/04/05 03:30:11;;;;;;;22.23;12.07;;;4.10;88.40;;;;;;2107797;28;20737;-69
2021/04/05 03:31:20;;;;;;;21.33;12.32;;;4.10;88.50;;;;;;2107538;28;20039;-69
2021/04/05 03:32:21;;;;;;;22.85;11.95;;;4.10;88.60;;;;;;2104474;28;20513;-70
2021/04/05 03:33:41;;;;;;;21.95;12.05;;;4.10;88.60;;;;;;2104110;28;20032;-70
2021/04/05 03:34:47;;;;;;;23.40;13.13;;;4.10;88.80;;;;;;2104972;28;20028;-70
2021/04/05 03:35:54;;;;;;;25.75;13.38;;;4.00;88.60;;;;;;2105209;28;20063;-71
2021/04/05 03:36:58;;;;;;;23.20;12.48;;;4.00;88.60;;;;;;2106732;28;20032;-69
2021/04/05 03:38:00;;;;;;;22.70;13.00;;;4.00;88.60;;;;;;2106101;28;20040;-71
2021/04/05 03:39:01;;;;;;;23.27;12.45;;;4.00;88.70;;;;;;2106150;28;20063;-71
2021/04/05 03:40:05;;;;;;;21.77;11.60;;;4.00;88.70;;;;;;2106804;28;20028;-71
2021/04/05 03:41:15;;;;;;;18.65;11.52;;;4.00;88.90;;;;;;2097670;28;20444;-69
2021/04/05 03:42:28;;;;;;;22.70;11.70;;;4.00;89.00;;;;;;2091978;28;20025;-69
2021/04/05 03:43:41;;;;;;;25.25;13.02;;;4.00;89.00;;;;;;2099013;28;20034;-69
2021/04/05 03:45:04;;;;;;;23.35;12.80;;;4.00;89.10;;;;;;2106266;28;20023;-69
2021/04/05 03:46:36;;;;;;;27.90;12.70;;;3.90;89.10;;;;;;2106745;28;20028;-70
2021/04/05 03:48:14;;;;;;;22.48;12.50;;;3.90;89.00;;;;;;2105077;28;20043;-69
2021/04/05 03:49:34;;;;;;;22.45;11.88;;;3.90;89.00;;;;;;2106592;28;20020;-70
2021/04/05 03:50:49;;;;;;;20.45;11.77;;;3.90;89.10;;;;;;2106697;28;20020;-69
2021/04/05 03:52:03;;;;;;;25.38;13.20;;;3.90;89.20;;;;;;2106694;28;20472;-70
2021/04/05 03:53:28;;;;;;;26.48;12.73;;;3.90;89.00;;;;;;2106610;28;20024;-70
2021/04/05 03:54:38;;;;;;;24.98;12.52;;;3.90;88.90;;;;;;2106644;28;20024;-70
2021/04/05 03:55:41;;;;;;;23.90;12.50;;;3.90;88.70;;;;;;2106676;28;20544;-70
2021/04/05 03:56:47;;;;;;;21.40;12.13;;;3.90;88.70;;;;;;2106615;28;20483;-69
2021/04/05 03:57:50;;;;;;;22.05;12.30;;;4.00;88.80;;;;;;2106576;28;20040;-69
2021/04/05 03:58:54;;;;;;;21.35;11.98;;;3.90;88.70;;;;;;2106005;28;20505;-69
2021/04/05 03:59:57;;;;;;;21.42;12.05;;;4.00;88.70;;;;;;2105992;28;20073;-70
2021/04/05 04:01:05;;;;;;;22.00;11.38;;;3.90;88.50;;;;;;2106620;28;20111;-70
2021/04/05 04:02:15;;;;;;;24.20;13.02;;;4.00;88.50;;;;;;2106601;28;20031;-70
2021/04/05 04:03:19;;;;;;;32.25;13.93;;;3.90;88.40;;;;;;2105672;28;20034;-70
2021/04/05 04:04:31;;;;;;;25.60;12.90;;;4.00;87.90;;;;;;2105920;28;20081;-70
2021/04/05 04:07:00;;;;;;;25.70;12.77;;;4.10;87.60;;;;;;2106583;28;20469;-70
2021/04/05 04:09:01;;;;;;;23.10;12.18;;;4.10;87.50;;;;;;2106531;28;20024;-70
2021/04/05 04:10:07;;;;;;;21.63;11.75;;;4.10;87.60;;;;;;2106478;28;20036;-70
2021/04/05 04:11:09;;;;;;;23.15;12.63;;;4.10;87.70;;;;;;2106492;28;20016;-70
2021/04/05 04:12:13;;;;;;;23.73;11.93;;;4.10;87.70;;;;;;2105805;28;20146;-70
2021/04/05 04:13:16;;;;;;;20.08;11.98;;;4.10;87.90;;;;;;2097430;28;20080;-70
2021/04/05 04:14:18;;;;;;;22.60;12.13;;;4.10;87.90;;;;;;2105851;28;20020;-70
2021/04/05 04:15:20;;;;;;;20.70;11.82;;;4.10;87.80;;;;;;2105817;28;20380;-70
2021/04/05 04:16:22;;;;;;;23.63;11.98;;;4.10;87.40;;;;;;2105942;28;20206;-70
2021/04/05 04:17:23;;;;;;;24.63;12.63;;;4.10;87.40;;;;;;2106637;28;20098;-70
2021/04/05 04:18:25;;;;;;;25.50;12.60;;;4.10;87.40;;;;;;2106602;28;20075;-70
2021/04/05 04:19:27;;;;;;;21.98;12.00;;;4.10;87.20;;;;;;2106562;28;20059;-70
2021/04/05 04:20:28;;;;;;;28.17;13.20;;;4.20;87.00;;;;;;2106743;28;20024;-70
2021/04/05 04:21:30;;;;;;;27.67;13.10;;;4.20;86.80;;;;;;2106577;28;20043;-69
2021/04/05 04:22:32;;;;;;;26.33;12.35;;;4.20;86.10;;;;;;2106606;28;20047;-71
2021/04/05 04:23:34;;;;;;;26.65;13.00;;;4.30;85.60;;;;;;2105363;28;20028;-70
2021/04/05 04:24:35;;;;;;;29.98;12.93;;;4.30;85.20;;;;;;2105830;28;20034;-70
2021/04/05 04:25:36;;;;;;;21.10;11.55;;;4.40;85.20;;;;;;2105796;28;20036;-70
2021/04/05 04:26:37;;;;;;;22.65;11.98;;;4.40;85.20;;;;;;2105814;28;20103;-70
2021/04/05 04:27:39;;;;;;;20.85;11.45;;;4.40;85.20;;;;;;2106480;28;20130;-70
2021/04/05 04:28:44;;;;;;;22.38;11.48;;;4.40;85.20;;;;;;2106425;28;20040;-70
2021/04/05 04:29:57;;;;;;;21.98;11.30;;;4.40;85.20;;;;;;2106348;28;20036;-70
2021/04/05 04:30:59;;;;;;;19.17;11.23;;;4.40;85.00;;;;;;2106526;28;20039;-70
2021/04/05 04:32:01;;;;;;;18.77;10.90;;;4.40;84.90;;;;;;2105560;28;20059;-70
2021/04/05 04:33:03;;;;;;;19.83;10.98;;;4.40;84.80;;;;;;2105697;28;20020;-70
2021/04/05 04:34:03;;;;;;;22.83;11.60;;;4.40;85.00;;;;;;2106204;28;20250;-70
2021/04/05 04:35:09;;;;;;;21.20;11.43;;;4.40;84.70;;;;;;2106384;28;20031;-70
2021/04/05 04:36:10;;;;;;;22.90;11.55;;;4.40;84.60;;;;;;2106515;28;20123;-68
2021/04/05 04:37:11;;;;;;;24.73;11.95;;;4.50;84.50;;;;;;2106424;28;20047;-69
2021/04/05 04:38:12;;;;;;;24.92;12.80;;;4.50;84.50;;;;;;2106406;28;20050;-69
2021/04/05 04:39:14;;;;;;;20.85;12.20;;;4.60;84.40;;;;;;2105697;28;20459;-69
2021/04/05 04:40:15;;;;;;;23.58;11.93;;;4.60;84.10;;;;;;2097564;28;20032;-69
2021/04/05 04:41:23;;;;;;;18.50;11.27;;;4.60;84.20;;;;;;2105733;28;20115;-69
2021/04/05 04:42:24;;;;;;;19.60;11.10;;;4.60;84.40;;;;;;2106364;28;20039;-69
2021/04/05 04:43:25;;;;;;;19.80;10.80;;;4.60;84.30;;;;;;2105811;28;20060;-69
2021/04/05 04:44:25;;;;;;;17.23;10.35;;;4.60;84.30;;;;;;2106169;28;20028;-70
2021/04/05 04:45:27;;;;;;;18.35;10.63;;;4.60;84.40;;;;;;2105851;28;20071;-70
2021/04/05 04:46:28;;;;;;;22.27;11.20;;;4.60;84.30;;;;;;2105678;28;20043;-70
2021/04/05 04:47:29;;;;;;;21.13;11.20;;;4.60;84.30;;;;;;2105791;28;20032;-69
2021/04/05 04:48:29;;;;;;;24.02;11.57;;;4.70;84.20;;;;;;2105813;28;20199;-70
2021/04/05 04:49:30;;;;;;;25.20;12.30;;;4.70;84.20;;;;;;2106182;28;20066;-70
2021/04/05 04:50:31;;;;;;;23.52;12.02;;;4.70;83.10;;;;;;2106124;28;20028;-70
2021/04/05 04:51:33;;;;;;;25.38;12.15;;;4.80;82.00;;;;;;2106168;28;20426;-70
2021/04/05 04:52:33;;;;;;;25.70;13.40;;;4.80;81.50;;;;;;2106048;28;20028;-70
2021/04/05 04:53:34;;;;;;;22.73;12.10;;;4.90;81.60;;;;;;2106013;28;20028;-70
2021/04/05 04:54:35;;;;;;;26.65;12.45;;;5.00;80.90;;;;;;2106312;28;20028;-70
2021/04/05 04:55:36;;;;;;;24.48;12.38;;;5.00;80.40;;;;;;2105434;28;20024;-69
2021/04/05 04:56:38;;;;;;;21.65;11.65;;;5.00;80.10;;;;;;2097185;28;20021;-69
2021/04/05 04:57:39;;;;;;;23.67;12.32;;;5.00;80.10;;;;;;2105633;28;20577;-70
2021/04/05 04:58:39;;;;;;;24.45;12.25;;;5.00;80.20;;;;;;2106189;28;20082;-69
2021/04/05 04:59:41;;;;;;;22.00;12.05;;;5.10;80.20;;;;;;2106123;28;20028;-69
2021/04/05 05:00:41;;;;;;;24.02;11.38;;;5.10;80.20;;;;;;2105480;28;20503;-70
2021/04/05 05:01:45;;;;;;;20.73;11.30;;;5.10;80.10;;;;;;2105555;28;20027;-70
2021/04/05 05:02:47;;;;;;;19.83;11.07;;;5.10;80.20;;;;;;2105574;28;20039;-69
2021/04/05 05:03:55;;;;;;;28.38;12.50;;;5.10;80.40;;;;;;2105502;28;20024;-69
2021/04/05 05:04:56;;;;;;;26.48;13.25;;;5.10;80.20;;;;;;2105645;28;20057;-70
2021/04/05 05:06:00;;;;;;;29.05;12.77;;;5.10;80.10;;;;;;2105501;28;20471;-70
2021/04/05 05:07:01;;;;;;;22.52;11.60;;;5.10;79.70;;;;;;2106243;28;20031;-69
2021/04/05 05:08:04;;;;;;;24.58;12.48;;;5.20;79.20;;;;;;2106122;28;20119;-70
2021/04/05 05:09:05;;;;;;;53.15;35.40;;;5.20;78.80;;;;;;2105379;28;20036;-70
2021/04/05 05:10:10;;;;;;;45.03;28.85;;;5.30;78.80;;;;;;2105439;28;20034;-70
2021/04/05 05:11:11;;;;;;;39.85;25.25;;;5.30;78.90;;;;;;2105394;28;20024;-69
2021/04/05 05:12:13;;;;;;;35.50;20.77;;;5.30;78.80;;;;;;2105485;28;20503;-69
2021/04/05 05:13:14;;;;;;;28.50;16.27;;;5.30;79.00;;;;;;2105741;28;20027;-69
2021/04/05 05:14:16;;;;;;;23.90;14.25;;;5.30;78.90;;;;;;2106106;28;20057;-69
2021/04/05 05:15:17;;;;;;;24.88;13.73;;;5.40;78.70;;;;;;2106071;28;20032;-69
2021/04/05 05:16:18;;;;;;;21.38;12.70;;;5.40;78.60;;;;;;2105600;28;20023;-70
2021/04/05 05:17:19;;;;;;;24.63;16.02;;;5.40;78.70;;;;;;2105849;28;20081;-69
2021/04/05 05:18:20;;;;;;;21.83;12.32;;;5.50;78.80;;;;;;2105570;28;20028;-69
2021/04/05 05:19:21;;;;;;;20.65;11.93;;;5.50;78.90;;;;;;2105608;28;20048;-69
2021/04/05 05:20:22;;;;;;;23.60;11.55;;;5.50;79.10;;;;;;2106104;28;20498;-70
2021/04/05 05:21:30;;;;;;;19.17;11.68;;;5.50;79.20;;;;;;2106243;28;20052;-69
2021/04/05 05:22:33;;;;;;;19.65;10.82;;;5.60;79.10;;;;;;2105958;28;20032;-70
2021/04/05 05:23:38;;;;;;;24.52;12.05;;;5.50;79.00;;;;;;2105667;28;20032;-70
2021/04/05 05:24:42;;;;;;;20.98;11.40;;;5.60;79.10;;;;;;2106096;28;20076;-70
2021/04/05 05:25:43;;;;;;;20.75;11.00;;;5.60;78.80;;;;;;2105952;28;20032;-70
2021/04/05 05:26:45;;;;;;;22.25;11.32;;;5.60;78.80;;;;;;2106894;28;20084;-70